createdAt,value
2018-05-04T00:00:09.496Z,9.12
2018-05-04T00:01:19.483Z,9.12
2018-05-04T00:02:29.190Z,9.12
2018-05-04T00:03:39.152Z,9.16
2018-05-04T00:04:49.195Z,9.09
2018-05-04T00:05:59.175Z,9.16
2018-05-04T00:07:09.189Z,9.16
2018-05-04T00:08:19.169Z,9.16
2018-05-04T00:09:29.126Z,9.08
2018-05-04T00:10:38.326Z,9.09
2018-05-04T00:11:48.051Z,9.08
2018-05-04T00:12:58.020Z,9.11
2018-05-04T00:14:08.002Z,9
2018-05-04T00:15:17.986Z,8.99
2018-05-04T00:16:27.701Z,9.02
2018-05-04T00:17:37.659Z,8.93
2018-05-04T00:18:47.635Z,8.93
2018-05-04T00:19:57.604Z,8.97
2018-05-04T00:21:07.321Z,8.89
2018-05-04T00:22:17.296Z,8.86
2018-05-04T00:23:27.265Z,8.84
2018-05-04T00:24:36.981Z,8.86
2018-05-04T00:25:46.705Z,8.9
2018-05-04T00:26:56.667Z,8.82
2018-05-04T00:28:06.386Z,8.9
2018-05-04T00:29:16.097Z,8.84
2018-05-04T00:30:26.071Z,8.81
2018-05-04T00:31:36.049Z,8.89
2018-05-04T00:32:46.077Z,8.87
2018-05-04T00:33:56.051Z,8.9
2018-05-04T00:35:06.024Z,8.84
2018-05-04T00:36:15.739Z,8.86
2018-05-04T00:37:25.712Z,8.82
2018-05-04T00:38:35.682Z,8.89
2018-05-04T00:39:45.654Z,8.92
2018-05-04T00:40:55.624Z,8.84
2018-05-04T00:42:05.594Z,8.81
2018-05-04T00:43:15.559Z,8.92
2018-05-04T00:44:25.266Z,8.89
2018-05-04T00:45:35.233Z,8.89
2018-05-04T00:46:44.936Z,8.87
2018-05-04T00:47:54.663Z,8.89
2018-05-04T00:49:04.368Z,8.97
2018-05-04T00:50:14.080Z,8.92
2018-05-04T00:51:24.050Z,8.95
2018-05-04T00:52:34.019Z,8.92
2018-05-04T00:53:43.977Z,8.97
2018-05-04T00:54:53.945Z,8.95
2018-05-04T00:56:03.916Z,8.89
2018-05-04T00:57:13.620Z,8.82
2018-05-04T00:58:23.592Z,8.86
2018-05-04T00:59:33.577Z,8.84
2018-05-04T01:00:43.634Z,8.87
2018-05-04T01:01:53.622Z,8.87
2018-05-04T01:03:03.590Z,8.84
2018-05-04T01:04:13.290Z,8.81
2018-05-04T01:05:23.004Z,8.69
2018-05-04T01:06:32.981Z,8.66
2018-05-04T01:07:42.946Z,8.53
2018-05-04T01:08:52.658Z,8.61
2018-05-04T01:10:02.631Z,8.61
2018-05-04T01:11:12.606Z,8.6
2018-05-04T01:12:22.313Z,8.66
2018-05-04T01:13:32.282Z,8.63
2018-05-04T01:14:41.988Z,8.61
2018-05-04T01:15:51.963Z,8.52
2018-05-04T01:17:01.927Z,8.42
2018-05-04T01:18:11.902Z,8.49
2018-05-04T01:19:21.868Z,8.46
2018-05-04T01:20:31.848Z,8.36
2018-05-04T01:21:41.815Z,8.36
2018-05-04T01:22:51.786Z,8.38
2018-05-04T01:24:01.503Z,8.32
2018-05-04T01:25:11.215Z,8.32
2018-05-04T01:26:21.186Z,8.24
2018-05-04T01:27:30.896Z,8.21
2018-05-04T01:28:40.341Z,8.16
2018-05-04T01:29:50.052Z,8.26
2018-05-04T01:30:59.566Z,8.18
2018-05-04T01:32:09.536Z,8.23
2018-05-04T01:33:19.498Z,8.31
2018-05-04T01:34:29.214Z,8.23
2018-05-04T01:35:39.175Z,8.28
2018-05-04T01:36:48.628Z,8.34
2018-05-04T01:37:58.332Z,8.23
2018-05-04T01:39:08.300Z,8.28
2018-05-04T01:40:18.280Z,8.31
2018-05-04T01:41:27.998Z,8.31
2018-05-04T01:42:37.715Z,8.27
2018-05-04T01:43:46.907Z,8.27
2018-05-04T01:44:56.882Z,8.27
2018-05-04T01:46:06.851Z,8.21
2018-05-04T01:47:16.825Z,8.27
2018-05-04T01:48:26.796Z,8.26
2018-05-04T01:49:36.500Z,8.26
2018-05-04T01:50:46.222Z,8.2
2018-05-04T01:51:55.931Z,8.26
2018-05-04T01:53:05.638Z,8.21
2018-05-04T01:54:15.345Z,8.18
2018-05-04T01:55:24.787Z,8.17
2018-05-04T01:56:34.491Z,8.18
2018-05-04T01:57:44.198Z,8.17
2018-05-04T01:58:54.168Z,8.18
2018-05-04T02:00:03.879Z,8.2
2018-05-04T02:01:13.857Z,8.21
2018-05-04T02:02:23.841Z,8.24
2018-05-04T02:03:33.812Z,8.18
2018-05-04T02:04:43.779Z,8.2
2018-05-04T02:05:53.490Z,8.08
2018-05-04T02:07:03.464Z,8.06
2018-05-04T02:08:13.439Z,8.08
2018-05-04T02:09:23.148Z,8.03
2018-05-04T02:10:33.106Z,8.02
2018-05-04T02:11:42.557Z,8.03
2018-05-04T02:12:52.532Z,7.99
2018-05-04T02:14:02.241Z,7.95
2018-05-04T02:15:12.201Z,7.87
2018-05-04T02:16:21.900Z,7.8
2018-05-04T02:17:31.629Z,7.78
2018-05-04T02:18:41.594Z,7.8
2018-05-04T02:19:51.564Z,7.8
2018-05-04T02:21:01.555Z,7.83
2018-05-04T02:22:11.535Z,7.75
2018-05-04T02:23:21.498Z,7.59
2018-05-04T02:24:31.457Z,7.61
2018-05-04T02:25:40.902Z,7.66
2018-05-04T02:26:50.349Z,7.58
2018-05-04T02:28:00.329Z,7.61
2018-05-04T02:29:10.026Z,7.59
2018-05-04T02:30:20.007Z,7.55
2018-05-04T02:31:30.050Z,7.56
2018-05-04T02:32:40.019Z,7.55
2018-05-04T02:33:49.726Z,7.43
2018-05-04T02:34:59.688Z,7.5
2018-05-04T02:36:09.671Z,7.47
2018-05-04T02:37:19.387Z,7.46
2018-05-04T02:38:29.364Z,7.39
2018-05-04T02:39:39.079Z,7.33
2018-05-04T02:40:49.066Z,7.36
2018-05-04T02:41:59.039Z,7.39
2018-05-04T02:43:09.107Z,7.36
2018-05-04T02:44:19.074Z,7.33
2018-05-04T02:45:29.043Z,7.29
2018-05-04T02:46:39.009Z,7.28
2018-05-04T02:47:48.731Z,7.28
2018-05-04T02:48:58.704Z,7.25
2018-05-04T02:50:08.672Z,7.31
2018-05-04T02:51:18.646Z,7.36
2018-05-04T02:52:28.620Z,7.29
2018-05-04T02:53:38.609Z,7.31
2018-05-04T02:54:48.583Z,7.18
2018-05-04T02:55:58.286Z,7.19
2018-05-04T02:57:07.739Z,7.15
2018-05-04T02:58:17.457Z,7.19
2018-05-04T02:59:27.435Z,7.29
2018-05-04T03:00:36.892Z,7.15
2018-05-04T03:01:46.602Z,7.29
2018-05-04T03:02:56.315Z,7.19
2018-05-04T03:04:06.576Z,7.15
2018-05-04T03:05:16.547Z,7.29
2018-05-04T03:06:26.532Z,7.26
2018-05-04T03:07:36.238Z,7.15
2018-05-04T03:08:46.222Z,7.15
2018-05-04T03:09:56.201Z,7.19
2018-05-04T03:11:06.173Z,7.19
2018-05-04T03:12:16.144Z,7.29
2018-05-04T03:13:26.111Z,7.26
2018-05-04T03:14:36.085Z,7.31
2018-05-04T03:15:46.051Z,7.29
2018-05-04T03:16:56.016Z,7.31
2018-05-04T03:18:05.973Z,7.36
2018-05-04T03:19:15.687Z,7.36
2018-05-04T03:20:25.669Z,7.37
2018-05-04T03:21:35.643Z,7.39
2018-05-04T03:22:45.349Z,7.39
2018-05-04T03:23:55.314Z,7.43
2018-05-04T03:25:05.290Z,7.44
2018-05-04T03:26:15.323Z,7.47
2018-05-04T03:27:25.027Z,7.47
2018-05-04T03:28:34.473Z,7.44
2018-05-04T03:29:44.450Z,7.44
2018-05-04T03:30:54.420Z,7.39
2018-05-04T03:32:04.139Z,7.47
2018-05-04T03:33:14.092Z,7.44
2018-05-04T03:34:24.065Z,7.55
2018-05-04T03:35:33.774Z,7.39
2018-05-04T03:36:43.221Z,7.48
2018-05-04T03:37:52.938Z,7.43
2018-05-04T03:39:02.908Z,7.4
2018-05-04T03:40:12.617Z,7.51
2018-05-04T03:41:22.323Z,7.48
2018-05-04T03:42:32.283Z,7.5
2018-05-04T03:43:42.003Z,7.47
2018-05-04T03:44:51.972Z,7.53
2018-05-04T03:46:01.698Z,7.43
2018-05-04T03:47:11.658Z,7.41
2018-05-04T03:48:21.354Z,7.55
2018-05-04T03:49:31.061Z,7.5
2018-05-04T03:50:41.029Z,7.47
2018-05-04T03:51:51.000Z,7.58
2018-05-04T03:53:01.006Z,7.5
2018-05-04T03:54:10.708Z,7.67
2018-05-04T03:55:20.419Z,7.53
2018-05-04T03:56:30.390Z,7.61
2018-05-04T03:57:40.352Z,7.64
2018-05-04T03:58:50.325Z,7.69
2018-05-04T04:00:00.300Z,7.62
2018-05-04T04:01:10.267Z,7.67
2018-05-04T04:02:20.248Z,7.64
2018-05-04T04:03:30.117Z,7.7
2018-05-04T04:04:40.082Z,7.78
2018-05-04T04:05:50.043Z,7.81
2018-05-04T04:06:59.756Z,7.8
2018-05-04T04:08:09.717Z,7.81
2018-05-04T04:09:19.419Z,7.77
2018-05-04T04:10:29.129Z,7.77
2018-05-04T04:11:38.836Z,7.72
2018-05-04T04:12:48.809Z,7.77
2018-05-04T04:13:58.777Z,7.83
2018-05-04T04:15:08.754Z,7.75
2018-05-04T04:16:18.733Z,7.85
2018-05-04T04:17:28.713Z,7.84
2018-05-04T04:18:38.689Z,7.78
2018-05-04T04:19:48.686Z,7.75
2018-05-04T04:20:58.889Z,7.84
2018-05-04T04:22:08.869Z,7.88
2018-05-04T04:23:18.842Z,7.98
2018-05-04T04:24:28.823Z,8.01
2018-05-04T04:25:38.788Z,8.01
2018-05-04T04:26:48.759Z,8.03
2018-05-04T04:27:58.468Z,7.99
2018-05-04T04:29:08.184Z,8.08
2018-05-04T04:30:18.153Z,8.11
2018-05-04T04:31:28.135Z,8.14
2018-05-04T04:32:38.104Z,8.18
2018-05-04T04:33:48.060Z,8.14
2018-05-04T04:34:57.784Z,8.11
2018-05-04T04:36:07.755Z,8.2
2018-05-04T04:37:17.481Z,8.24
2018-05-04T04:38:27.466Z,8.31
2018-05-04T04:39:37.191Z,8.32
2018-05-04T04:40:46.906Z,8.31
2018-05-04T04:41:56.375Z,8.31
2018-05-04T04:43:06.089Z,8.36
2018-05-04T04:44:16.072Z,8.38
2018-05-04T04:45:26.106Z,8.35
2018-05-04T04:46:36.247Z,8.49
2018-05-04T04:47:46.210Z,8.45
2018-05-04T04:48:55.913Z,8.46
2018-05-04T04:50:05.614Z,8.53
2018-05-04T04:51:15.601Z,8.57
2018-05-04T04:52:25.574Z,8.57
2018-05-04T04:53:35.550Z,8.53
2018-05-04T04:54:45.018Z,8.64
2018-05-04T04:55:54.991Z,8.61
2018-05-04T04:57:04.714Z,8.68
2018-05-04T04:58:14.688Z,8.63
2018-05-04T04:59:24.659Z,8.71
2018-05-04T05:00:34.627Z,8.72
2018-05-04T05:01:44.609Z,8.71
2018-05-04T05:02:54.439Z,8.77
2018-05-04T05:04:04.417Z,8.79
2018-05-04T05:05:14.124Z,8.84
2018-05-04T05:06:24.094Z,8.86
2018-05-04T05:07:33.797Z,8.99
2018-05-04T05:08:43.516Z,8.95
2018-05-04T05:09:53.496Z,8.87
2018-05-04T05:11:03.468Z,8.96
2018-05-04T05:12:13.437Z,8.96
2018-05-04T05:13:22.643Z,9
2018-05-04T05:14:32.818Z,9.09
2018-05-04T05:15:42.530Z,9.08
2018-05-04T05:16:52.502Z,9.03
2018-05-04T05:18:02.498Z,9.09
2018-05-04T05:19:12.503Z,9.09
2018-05-04T05:20:22.584Z,9.18
2018-05-04T05:21:32.557Z,9.24
2018-05-04T05:22:42.536Z,9.26
2018-05-04T05:23:52.716Z,9.24
2018-05-04T05:25:02.681Z,9.29
2018-05-04T05:26:12.668Z,9.37
2018-05-04T05:27:22.387Z,9.36
2018-05-04T05:28:32.356Z,9.49
2018-05-04T05:29:42.399Z,9.47
2018-05-04T05:30:51.852Z,9.44
2018-05-04T05:32:01.572Z,9.47
2018-05-04T05:33:11.287Z,9.58
2018-05-04T05:34:21.250Z,9.59
2018-05-04T05:35:31.309Z,9.64
2018-05-04T05:36:41.321Z,9.67
2018-05-04T05:37:51.308Z,9.69
2018-05-04T05:39:01.297Z,9.8
2018-05-04T05:40:10.843Z,9.81
2018-05-04T05:41:20.838Z,9.94
2018-05-04T05:42:31.069Z,9.95
2018-05-04T05:43:41.055Z,9.99
2018-05-04T05:44:51.061Z,9.99
2018-05-04T05:46:01.020Z,10.09
2018-05-04T05:47:10.981Z,10.21
2018-05-04T05:48:20.712Z,10.15
2018-05-04T05:49:30.936Z,10.27
2018-05-04T05:50:40.916Z,10.2
2018-05-04T05:51:50.670Z,10.24
2018-05-04T05:53:00.498Z,10.24
2018-05-04T05:54:10.481Z,10.28
2018-05-04T05:55:20.222Z,10.33
2018-05-04T05:56:29.958Z,10.36
2018-05-04T05:57:39.935Z,10.25
2018-05-04T05:58:49.932Z,10.33
2018-05-04T05:59:59.903Z,10.36
2018-05-04T06:01:09.629Z,10.38
2018-05-04T06:02:19.370Z,10.48
2018-05-04T06:03:29.369Z,10.46
2018-05-04T06:04:39.357Z,10.53
2018-05-04T06:05:49.349Z,10.49
2018-05-04T06:06:59.334Z,10.49
2018-05-04T06:08:09.335Z,10.57
2018-05-04T06:09:19.564Z,10.62
2018-05-04T06:10:29.688Z,10.67
2018-05-04T06:11:39.674Z,10.82
2018-05-04T06:12:49.410Z,10.77
2018-05-04T06:13:59.410Z,10.79
2018-05-04T06:15:09.663Z,10.84
2018-05-04T06:16:19.731Z,10.83
2018-05-04T06:17:29.730Z,10.95
2018-05-04T06:18:39.452Z,10.97
2018-05-04T06:19:49.172Z,11.05
2018-05-04T06:20:58.902Z,10.95
2018-05-04T06:22:08.900Z,11.02
2018-05-04T06:23:18.903Z,11.04
2018-05-04T06:24:28.931Z,11.13
2018-05-04T06:25:38.932Z,11.12
2018-05-04T06:26:48.918Z,11.23
2018-05-04T06:27:58.630Z,11.25
2018-05-04T06:29:08.345Z,11.2
2018-05-04T06:30:18.355Z,11.19
2018-05-04T06:31:28.081Z,11.25
2018-05-04T06:32:38.123Z,11.2
2018-05-04T06:33:48.394Z,11.13
2018-05-04T06:34:58.151Z,11.1
2018-05-04T06:36:08.165Z,11.13
2018-05-04T06:37:18.156Z,11.1
2018-05-04T06:38:28.146Z,11.19
2018-05-04T06:39:38.153Z,11.19
2018-05-04T06:40:47.792Z,11.16
2018-05-04T06:41:57.778Z,11.33
2018-05-04T06:43:07.775Z,11.33
2018-05-04T06:44:17.780Z,11.34
2018-05-04T06:45:27.778Z,11.52
2018-05-04T06:46:37.785Z,11.59
2018-05-04T06:47:47.515Z,11.62
2018-05-04T06:48:57.511Z,11.73
2018-05-04T06:50:07.512Z,11.71
2018-05-04T06:51:17.522Z,11.73
2018-05-04T06:52:27.247Z,11.81
2018-05-04T06:53:36.974Z,11.83
2018-05-04T06:54:47.015Z,11.78
2018-05-04T06:55:56.491Z,11.91
2018-05-04T06:57:06.226Z,11.89
2018-05-04T06:58:15.969Z,11.85
2018-05-04T06:59:26.078Z,11.78
2018-05-04T07:00:35.927Z,11.86
2018-05-04T07:01:45.897Z,11.89
2018-05-04T07:02:55.893Z,11.99
2018-05-04T07:04:05.985Z,12.03
2018-05-04T07:05:16.080Z,11.97
2018-05-04T07:06:26.125Z,12.08
2018-05-04T07:07:35.855Z,12.14
2018-05-04T07:08:45.847Z,12.15
2018-05-04T07:09:55.933Z,12.23
2018-05-04T07:11:05.903Z,12.39
2018-05-04T07:12:15.894Z,12.33
2018-05-04T07:13:26.128Z,12.53
2018-05-04T07:14:36.259Z,12.53
2018-05-04T07:15:46.268Z,12.78
2018-05-04T07:16:56.010Z,12.78
2018-05-04T07:18:06.001Z,12.91
2018-05-04T07:19:15.724Z,12.93
2018-05-04T07:20:25.452Z,13.06
2018-05-04T07:21:35.470Z,13.11
2018-05-04T07:22:45.186Z,13.05
2018-05-04T07:23:54.917Z,13.23
2018-05-04T07:25:04.649Z,13.3
2018-05-04T07:26:14.642Z,13.3
2018-05-04T07:27:24.639Z,13.36
2018-05-04T07:28:34.102Z,13.28
2018-05-04T07:29:44.200Z,13.36
2018-05-04T07:30:53.916Z,13.43
2018-05-04T07:32:03.651Z,13.45
2018-05-04T07:33:13.128Z,13.47
2018-05-04T07:34:23.112Z,13.55
2018-05-04T07:35:32.891Z,13.54
2018-05-04T07:36:42.886Z,13.4
2018-05-04T07:37:52.865Z,13.46
2018-05-04T07:39:02.857Z,13.4
2018-05-04T07:40:12.600Z,13.52
2018-05-04T07:41:22.319Z,13.55
2018-05-04T07:42:32.304Z,13.67
2018-05-04T07:43:41.833Z,13.7
2018-05-04T07:44:51.568Z,13.86
2018-05-04T07:46:01.562Z,13.83
2018-05-04T07:47:11.546Z,14.01
2018-05-04T07:48:21.538Z,14.07
2018-05-04T07:49:30.989Z,14.03
2018-05-04T07:50:40.978Z,13.97
2018-05-04T07:51:50.955Z,14.01
2018-05-04T07:53:00.677Z,13.98
2018-05-04T07:54:10.643Z,14.04
2018-05-04T07:55:20.851Z,13.97
2018-05-04T07:56:30.865Z,14.04
2018-05-04T07:57:40.585Z,14
2018-05-04T07:58:50.303Z,14.05
2018-05-04T08:00:00.274Z,14.16
2018-05-04T08:01:10.261Z,14.31
2018-05-04T08:02:20.222Z,14.37
2018-05-04T08:03:30.231Z,14.48
2018-05-04T08:04:40.216Z,14.51
2018-05-04T08:05:50.220Z,14.55
2018-05-04T08:07:00.195Z,14.58
2018-05-04T08:08:09.966Z,14.62
2018-05-04T08:09:19.971Z,14.71
2018-05-04T08:10:29.681Z,14.68
2018-05-04T08:11:39.656Z,14.78
2018-05-04T08:12:49.632Z,14.86
2018-05-04T08:13:59.619Z,14.92
2018-05-04T08:15:09.339Z,15.04
2018-05-04T08:16:19.337Z,15.04
2018-05-04T08:17:29.054Z,15.11
2018-05-04T08:18:39.048Z,15.17
2018-05-04T08:19:48.515Z,15.3
2018-05-04T08:20:58.526Z,15.37
2018-05-04T08:22:08.537Z,15.45
2018-05-04T08:23:18.277Z,15.52
2018-05-04T08:24:27.780Z,15.57
2018-05-04T08:25:37.795Z,15.66
2018-05-04T08:26:47.810Z,15.72
2018-05-04T08:27:57.889Z,15.67
2018-05-04T08:29:07.881Z,15.75
2018-05-04T08:30:17.620Z,16.06
2018-05-04T08:31:27.385Z,16.36
2018-05-04T08:32:37.395Z,16.54
2018-05-04T08:33:47.186Z,16.89
2018-05-04T08:34:57.216Z,17.23
2018-05-04T08:36:07.585Z,17.42
2018-05-04T08:37:17.372Z,17.65
2018-05-04T08:38:27.094Z,17.76
2018-05-04T08:39:36.852Z,17.82
2018-05-04T08:40:46.979Z,17.88
2018-05-04T08:41:57.320Z,18.06
2018-05-04T08:43:07.689Z,18.08
2018-05-04T08:44:17.685Z,18.27
2018-05-04T08:45:27.704Z,18.34
2018-05-04T08:46:37.701Z,18.52
2018-05-04T08:47:47.689Z,18.86
2018-05-04T08:48:57.748Z,19.2
2018-05-04T08:50:07.469Z,19.42
2018-05-04T08:51:17.560Z,19.75
2018-05-04T08:52:27.570Z,20.12
2018-05-04T08:53:37.044Z,20
2018-05-04T08:54:47.000Z,19.63
2018-05-04T08:55:56.741Z,19.41
2018-05-04T08:57:06.879Z,18.73
2018-05-04T08:58:17.136Z,18.98
2018-05-04T08:59:27.111Z,19.32
2018-05-04T09:00:36.571Z,19.64
2018-05-04T09:01:46.557Z,19.92
2018-05-04T09:02:56.537Z,20.17
2018-05-04T09:04:06.263Z,20.27
2018-05-04T09:05:16.574Z,20.4
2018-05-04T09:06:26.480Z,20.75
2018-05-04T09:07:36.484Z,20.86
2018-05-04T09:08:46.513Z,20.86
2018-05-04T09:09:56.273Z,21.01
2018-05-04T09:11:06.304Z,21.2
2018-05-04T09:12:15.839Z,21.05
2018-05-04T09:13:25.844Z,21.28
2018-05-04T09:14:35.816Z,21.47
2018-05-04T09:15:45.571Z,21.62
2018-05-04T09:16:55.354Z,21.78
2018-05-04T09:18:05.072Z,21.89
2018-05-04T09:19:15.079Z,22.22
2018-05-04T09:20:25.079Z,22.28
2018-05-04T09:21:34.800Z,22.33
2018-05-04T09:22:44.801Z,22.31
2018-05-04T09:23:54.546Z,22.36
2018-05-04T09:25:04.510Z,22.47
2018-05-04T09:26:14.221Z,22.55
2018-05-04T09:27:24.211Z,22.77
2018-05-04T09:28:34.203Z,22.89
2018-05-04T09:29:44.188Z,22.18
2018-05-04T09:30:54.102Z,22.18
2018-05-04T09:32:04.289Z,22.28
2018-05-04T09:33:14.011Z,22
2018-05-04T09:34:24.009Z,22.08
2018-05-04T09:35:33.729Z,22.18
2018-05-04T09:36:43.945Z,22.34
2018-05-04T09:37:53.699Z,22.38
2018-05-04T09:39:03.890Z,22.78
2018-05-04T09:40:13.630Z,22.58
2018-05-04T09:41:23.646Z,22.56
2018-05-04T09:42:34.097Z,22.41
2018-05-04T09:43:43.397Z,22.41
2018-05-04T09:44:53.608Z,22.34
2018-05-04T09:46:03.608Z,22.55
2018-05-04T09:47:13.085Z,22.89
2018-05-04T09:48:22.839Z,23.11
2018-05-04T09:49:32.585Z,23.49
2018-05-04T09:50:42.612Z,23.47
2018-05-04T09:51:52.367Z,23.71
2018-05-04T09:53:02.378Z,23.91
2018-05-04T09:54:12.110Z,23.91
2018-05-04T09:55:22.132Z,24.16
2018-05-04T09:56:32.124Z,24.4
2018-05-04T09:57:42.142Z,24.51
2018-05-04T09:58:52.220Z,24.68
2018-05-04T10:00:01.977Z,24.75
2018-05-04T10:01:11.722Z,24.78
2018-05-04T10:02:21.460Z,24.82
2018-05-04T10:03:31.014Z,24.89
2018-05-04T10:04:40.895Z,25.3
2018-05-04T10:05:50.391Z,25.26
2018-05-04T10:07:00.400Z,24.79
2018-05-04T10:08:09.881Z,24.22
2018-05-04T10:09:19.715Z,23.64
2018-05-04T10:10:29.456Z,23.73
2018-05-04T10:11:39.441Z,23.95
2018-05-04T10:12:49.428Z,23.92
2018-05-04T10:13:59.508Z,23.89
2018-05-04T10:15:09.510Z,24.19
2018-05-04T10:16:19.275Z,24.29
2018-05-04T10:17:29.281Z,24.31
2018-05-04T10:18:39.279Z,24.31
2018-05-04T10:19:49.273Z,24.44
2018-05-04T10:20:59.028Z,24.65
2018-05-04T10:22:09.049Z,24.65
2018-05-04T10:23:19.023Z,24.79
2018-05-04T10:24:29.025Z,25.16
2018-05-04T10:25:39.030Z,24.82
2018-05-04T10:26:49.042Z,24.24
2018-05-04T10:27:58.514Z,24.21
2018-05-04T10:29:08.030Z,24.46
2018-05-04T10:30:17.795Z,24.79
2018-05-04T10:31:27.960Z,25.19
2018-05-04T10:32:38.119Z,25.4
2018-05-04T10:33:48.403Z,25.58
2018-05-04T10:34:58.401Z,25.34
2018-05-04T10:36:07.690Z,25.52
2018-05-04T10:37:17.429Z,25.34
2018-05-04T10:38:27.485Z,25.3
2018-05-04T10:39:37.925Z,25.52
2018-05-04T10:40:47.689Z,25.93
2018-05-04T10:41:57.713Z,26.1
2018-05-04T10:43:07.712Z,26.04
2018-05-04T10:44:17.707Z,26.01
2018-05-04T10:45:27.724Z,25.62
2018-05-04T10:46:37.731Z,25.3
2018-05-04T10:47:47.512Z,24.68
2018-05-04T10:48:57.271Z,24.85
2018-05-04T10:50:07.059Z,24.81
2018-05-04T10:51:17.095Z,24.88
2018-05-04T10:52:26.589Z,25.01
2018-05-04T10:53:36.569Z,25.22
2018-05-04T10:54:46.300Z,25.49
2018-05-04T10:55:56.291Z,25.74
2018-05-04T10:57:06.373Z,26.04
2018-05-04T10:58:16.213Z,26.41
2018-05-04T10:59:26.225Z,26.63
2018-05-04T11:00:35.962Z,26.52
2018-05-04T11:01:45.426Z,26.64
2018-05-04T11:02:55.146Z,26.04
2018-05-04T11:04:05.141Z,25.7
2018-05-04T11:05:15.131Z,25.12
2018-05-04T11:06:25.223Z,24.47
2018-05-04T11:07:35.293Z,24.37
2018-05-04T11:08:44.764Z,24.69
2018-05-04T11:09:54.777Z,25.07
2018-05-04T11:11:04.804Z,25.66
2018-05-04T11:12:14.829Z,25.96
2018-05-04T11:13:24.806Z,26.06
2018-05-04T11:14:35.107Z,25.7
2018-05-04T11:15:45.126Z,25.52
2018-05-04T11:16:55.390Z,25.4
2018-05-04T11:18:05.390Z,25.03
2018-05-04T11:19:15.136Z,25.16
2018-05-04T11:20:25.206Z,25.06
2018-05-04T11:21:35.237Z,25.29
2018-05-04T11:22:45.283Z,24.44
2018-05-04T11:23:55.302Z,24.58
2018-05-04T11:25:05.347Z,24.78
2018-05-04T11:26:15.080Z,24.43
2018-05-04T11:27:25.102Z,24.36
2018-05-04T11:28:35.145Z,24.68
2018-05-04T11:29:44.914Z,24.89
2018-05-04T11:30:55.087Z,24.55
2018-05-04T11:32:05.148Z,23.74
2018-05-04T11:33:15.165Z,23.63
2018-05-04T11:34:25.154Z,23.51
2018-05-04T11:35:35.286Z,23.77
2018-05-04T11:36:45.286Z,23.48
2018-05-04T11:37:55.291Z,23.23
2018-05-04T11:39:05.455Z,23.49
2018-05-04T11:40:15.460Z,24
2018-05-04T11:41:25.693Z,24.22
2018-05-04T11:42:35.710Z,24.61
2018-05-04T11:43:45.440Z,25.09
2018-05-04T11:44:55.437Z,25.41
2018-05-04T11:46:05.445Z,24.77
2018-05-04T11:47:15.454Z,25.04
2018-05-04T11:48:25.440Z,25.18
2018-05-04T11:49:35.674Z,25.66
2018-05-04T11:50:45.490Z,25.73
2018-05-04T11:51:55.482Z,25.4
2018-05-04T11:53:05.462Z,25.15
2018-05-04T11:54:15.459Z,25.71
2018-05-04T11:55:25.559Z,26.19
2018-05-04T11:56:35.559Z,26.64
2018-05-04T11:57:45.636Z,27.1
2018-05-04T11:58:55.668Z,27.52
2018-05-04T12:00:05.704Z,27.76
2018-05-04T12:01:15.440Z,28.04
2018-05-04T12:02:25.501Z,28.3
2018-05-04T12:03:35.373Z,28.16
2018-05-04T12:04:45.447Z,28.52
2018-05-04T12:05:55.585Z,28.41
2018-05-04T12:07:05.588Z,27.13
2018-05-04T12:08:15.617Z,25.89
2018-05-04T12:09:25.702Z,25.16
2018-05-04T12:10:35.459Z,25.11
2018-05-04T12:11:45.656Z,25.61
2018-05-04T12:12:55.386Z,25.74
2018-05-04T12:14:05.120Z,25.7
2018-05-04T12:15:14.860Z,25.92
2018-05-04T12:16:24.383Z,26.04
2018-05-04T12:17:34.150Z,26.3
2018-05-04T12:18:43.659Z,26.56
2018-05-04T12:19:53.436Z,27.16
2018-05-04T12:21:03.433Z,27.47
2018-05-04T12:22:13.392Z,27.85
2018-05-04T12:23:23.114Z,28.12
2018-05-04T12:24:32.866Z,28.59
2018-05-04T12:25:42.597Z,28.35
2018-05-04T12:26:52.605Z,28.25
2018-05-04T12:28:02.346Z,28.64
2018-05-04T12:29:12.091Z,27.68
2018-05-04T12:30:22.081Z,27.07
2018-05-04T12:31:31.940Z,25.95
2018-05-04T12:32:41.975Z,25.52
2018-05-04T12:33:51.986Z,25.86
2018-05-04T12:35:01.733Z,26.37
2018-05-04T12:36:11.747Z,26.86
2018-05-04T12:37:21.767Z,27.16
2018-05-04T12:38:31.675Z,27.13
2018-05-04T12:39:41.156Z,27.1
2018-05-04T12:40:51.166Z,27.22
2018-05-04T12:42:01.146Z,27.43
2018-05-04T12:43:11.149Z,27.72
2018-05-04T12:44:21.133Z,27.45
2018-05-04T12:45:31.311Z,27.55
2018-05-04T12:46:41.043Z,27.73
2018-05-04T12:47:51.031Z,28.13
2018-05-04T12:49:01.023Z,28.72
2018-05-04T12:50:11.019Z,29.42
2018-05-04T12:51:21.010Z,29.67
2018-05-04T12:52:31.016Z,29.87
2018-05-04T12:53:41.157Z,29.42
2018-05-04T12:54:51.459Z,29.1
2018-05-04T12:56:01.475Z,29.05
2018-05-04T12:57:11.477Z,28.37
2018-05-04T12:58:21.478Z,27.48
2018-05-04T12:59:31.482Z,27.4
2018-05-04T13:00:40.965Z,27.16
2018-05-04T13:01:50.953Z,27.34
2018-05-04T13:03:00.681Z,27.5
2018-05-04T13:04:10.685Z,27.79
2018-05-04T13:05:20.427Z,28.12
2018-05-04T13:06:30.422Z,28.34
2018-05-04T13:07:39.921Z,28.55
2018-05-04T13:08:49.915Z,28.92
2018-05-04T13:09:59.904Z,29.07
2018-05-04T13:11:09.383Z,29.18
2018-05-04T13:12:19.400Z,29.59
2018-05-04T13:13:29.402Z,29.44
2018-05-04T13:14:39.142Z,29.73
2018-05-04T13:15:49.134Z,29.79
2018-05-04T13:16:59.140Z,29.96
2018-05-04T13:18:09.176Z,29.84
2018-05-04T13:19:18.940Z,29.18
2018-05-04T13:20:28.723Z,28.49
2018-05-04T13:21:38.722Z,27.63
2018-05-04T13:22:48.457Z,26.93
2018-05-04T13:23:58.448Z,26.48
2018-05-04T13:25:08.446Z,25.89
2018-05-04T13:26:18.180Z,25.22
2018-05-04T13:27:28.179Z,24.97
2018-05-04T13:28:38.228Z,25.46
2018-05-04T13:29:47.958Z,26.06
2018-05-04T13:30:57.947Z,26.79
2018-05-04T13:32:07.444Z,27.45
2018-05-04T13:33:17.183Z,28.13
2018-05-04T13:34:27.037Z,28.5
2018-05-04T13:35:37.031Z,28.71
2018-05-04T13:36:47.056Z,29.13
2018-05-04T13:37:56.791Z,29.39
2018-05-04T13:39:06.531Z,29.4
2018-05-04T13:40:16.523Z,29.12
2018-05-04T13:41:26.594Z,28.89
2018-05-04T13:42:36.628Z,28.25
2018-05-04T13:43:46.628Z,28.35
2018-05-04T13:44:56.630Z,28.3
2018-05-04T13:46:06.364Z,28.04
2018-05-04T13:47:16.377Z,28.35
2018-05-04T13:48:26.387Z,27.86
2018-05-04T13:49:35.877Z,27.13
2018-05-04T13:50:45.983Z,25.96
2018-05-04T13:51:55.818Z,26.11
2018-05-04T13:53:05.812Z,26.55
2018-05-04T13:54:15.820Z,27.34
2018-05-04T13:55:25.553Z,27.85
2018-05-04T13:56:35.285Z,28.35
2018-05-04T13:57:45.287Z,28.71
2018-05-04T13:58:55.302Z,28.9
2018-05-04T14:00:05.328Z,29.2
2018-05-04T14:01:15.288Z,28.82
2018-05-04T14:02:25.298Z,28.59
2018-05-04T14:03:35.324Z,28.49
2018-05-04T14:04:45.331Z,28.78
2018-05-04T14:05:55.105Z,28.27
2018-05-04T14:07:04.839Z,27.61
2018-05-04T14:08:14.839Z,27.08
2018-05-04T14:09:24.839Z,26.33
2018-05-04T14:10:34.580Z,26.37
2018-05-04T14:11:44.572Z,26.66
2018-05-04T14:12:54.677Z,26.61
2018-05-04T14:14:04.414Z,26.86
2018-05-04T14:15:14.417Z,27.2
2018-05-04T14:16:24.414Z,27.6
2018-05-04T14:17:34.432Z,27.4
2018-05-04T14:18:44.430Z,26.59
2018-05-04T14:19:54.162Z,26.37
2018-05-04T14:21:04.152Z,25.89
2018-05-04T14:22:14.144Z,25.34
2018-05-04T14:23:24.205Z,24.89
2018-05-04T14:24:33.962Z,25.19
2018-05-04T14:25:43.697Z,25.43
2018-05-04T14:26:53.697Z,25.68
2018-05-04T14:28:03.458Z,25.41
2018-05-04T14:29:13.179Z,25.7
2018-05-04T14:30:22.911Z,25.48
2018-05-04T14:31:32.920Z,25.78
2018-05-04T14:32:42.391Z,25.98
2018-05-04T14:33:52.392Z,26.06
2018-05-04T14:35:02.731Z,26.46
2018-05-04T14:36:12.928Z,26.89
2018-05-04T14:37:22.728Z,27.38
2018-05-04T14:38:32.454Z,27.35
2018-05-04T14:39:42.456Z,27.45
2018-05-04T14:40:52.443Z,27.61
2018-05-04T14:42:02.433Z,27.68
2018-05-04T14:43:12.176Z,27.63
2018-05-04T14:44:21.898Z,27.88
2018-05-04T14:45:32.412Z,27.95
2018-05-04T14:46:42.162Z,27.98
2018-05-04T14:47:51.904Z,28.08
2018-05-04T14:49:01.907Z,28.01
2018-05-04T14:50:11.909Z,28.04
2018-05-04T14:51:21.719Z,27.6
2018-05-04T14:52:31.887Z,27.48
2018-05-04T14:53:41.601Z,27.15
2018-05-04T14:54:51.596Z,27.2
2018-05-04T14:56:01.341Z,27.61
2018-05-04T14:57:11.336Z,28.06
2018-05-04T14:58:21.332Z,28.45
2018-05-04T14:59:31.104Z,28.65
2018-05-04T15:00:40.854Z,28.89
2018-05-04T15:01:50.323Z,28.64
2018-05-04T15:03:00.318Z,27.86
2018-05-04T15:04:10.308Z,27.3
2018-05-04T15:05:20.304Z,26.93
2018-05-04T15:06:30.311Z,26.03
2018-05-04T15:07:39.805Z,25.63
2018-05-04T15:08:49.807Z,25.59
2018-05-04T15:09:59.529Z,25.58
2018-05-04T15:11:09.264Z,25.81
2018-05-04T15:12:18.738Z,25.92
2018-05-04T15:13:28.748Z,26.31